Terminal Aerodrome Forecast
Issued by NWS

Home | Current Version | Previous Version | Text Only | Print | Product List | Glossary On
Versions: 1 2 3 4 5 6 7 8 9 10 11 12 13 14 15 16 17
000
FTUS43 KIND 022320
TAFLAF
TAF
KLAF 022320Z 0300/0324 29006KT P6SM OVC035
     FM031300 VRB03KT P6SM BKN035
     FM032000 VRB03KT P6SM BKN100
      AMD LTD TO CLD VIS AND WIND 0202/0214=

USA.gov is the U.S. government's official web portal to all federal, state and local government web resources and services.